createdAt,value
2019-04-03T17:25:54.118Z,24.19
2019-04-03T17:26:56.050Z,24.12
2019-04-03T17:27:55.302Z,24.12
2019-04-03T17:28:47.877Z,24.06
2019-04-03T17:29:46.145Z,24.06
2019-04-03T17:30:43.228Z,24.00
2019-04-03T17:31:40.473Z,23.94
2019-04-03T17:32:37.675Z,23.94
2019-04-03T17:33:35.621Z,23.87
2019-04-03T17:34:32.746Z,23.87
2019-04-03T17:35:29.428Z,23.81
2019-04-03T17:36:26.045Z,23.75
2019-04-03T17:37:24.989Z,23.75
2019-04-03T17:38:21.542Z,23.69
2019-04-03T17:39:18.241Z,23.69
2019-04-03T17:40:14.931Z,23.62
2019-04-03T17:41:11.536Z,23.62
2019-04-03T17:42:08.738Z,23.56
2019-04-03T17:43:05.857Z,23.56
2019-04-03T17:44:02.476Z,23.50
2019-04-03T17:44:59.089Z,23.44
2019-04-03T17:45:55.788Z,23.44
2019-04-03T17:46:52.490Z,23.38
2019-04-03T17:47:49.730Z,23.38
2019-04-03T17:48:47.730Z,23.31
2019-04-03T17:49:44.341Z,23.31
2019-04-03T17:50:41.040Z,23.25
2019-04-03T17:51:37.736Z,23.25
2019-04-03T17:52:36.111Z,23.19
2019-04-03T17:53:32.854Z,23.19
2019-04-03T17:54:29.571Z,23.12
2019-04-03T17:55:26.176Z,23.12
2019-04-03T17:56:22.876Z,23.06
2019-04-03T17:57:19.584Z,23.06
2019-04-03T17:58:16.798Z,23.00
2019-04-03T17:59:14.090Z,23.00
2019-04-03T18:00:10.820Z,23.00
2019-04-03T18:01:07.513Z,22.94
2019-04-03T18:02:04.213Z,22.94
2019-04-03T18:03:00.904Z,22.87
2019-04-03T18:03:57.520Z,22.87
2019-04-03T18:04:54.250Z,22.81
2019-04-03T18:05:50.848Z,22.81
2019-04-03T18:06:47.461Z,22.75
2019-04-03T18:07:44.171Z,22.75
2019-04-03T18:08:40.868Z,22.75
2019-04-03T18:09:37.581Z,22.69
2019-04-03T18:10:34.332Z,22.69
2019-04-03T18:11:31.024Z,22.69
2019-04-03T18:12:27.641Z,22.62
2019-04-03T18:13:24.340Z,22.62
2019-04-03T18:14:21.050Z,22.56
2019-04-03T18:15:17.783Z,22.56
2019-04-03T18:16:14.468Z,22.56
2019-04-03T18:17:11.080Z,22.81
2019-04-03T18:18:07.781Z,23.50
2019-04-03T18:19:04.865Z,24.37
2019-04-03T18:20:02.198Z,26.44
2019-04-03T18:20:58.921Z,29.19
2019-04-03T18:21:55.647Z,31.25
2019-04-03T18:22:52.349Z,32.13
2019-04-03T18:23:49.069Z,32.19
2019-04-03T18:24:45.768Z,34.19
2019-04-03T18:25:42.502Z,37.19
2019-04-03T18:26:39.212Z,37.50
2019-04-03T18:27:35.917Z,36.31
2019-04-03T18:28:35.487Z,35.19
2019-04-03T18:29:31.122Z,34.44
2019-04-03T18:30:27.827Z,34.00
2019-04-03T18:31:24.472Z,33.75
2019-04-03T18:32:21.181Z,33.50
2019-04-03T18:33:17.885Z,33.25
2019-04-03T18:34:14.592Z,32.94
2019-04-03T18:35:11.306Z,32.44
2019-04-03T18:36:08.004Z,31.81
2019-04-03T18:37:07.310Z,30.94
2019-04-03T18:38:03.253Z,29.94
2019-04-03T18:38:59.969Z,29.12
2019-04-03T18:39:56.673Z,28.44
2019-04-03T18:40:53.370Z,27.94
2019-04-03T18:41:50.013Z,27.56
2019-04-03T18:42:49.545Z,27.31
2019-04-03T18:43:45.229Z,27.06
2019-04-03T18:44:41.933Z,26.87
2019-04-03T18:45:38.640Z,26.75
2019-04-03T18:46:36.846Z,26.69
2019-04-03T18:47:41.199Z,26.87
2019-04-03T18:48:32.270Z,27.31
2019-04-03T18:49:28.964Z,27.94
2019-04-03T18:50:25.732Z,28.94
2019-04-03T18:51:22.472Z,30.00
2019-04-03T18:52:19.104Z,31.06
2019-04-03T18:53:15.821Z,31.87
2019-04-03T18:54:12.528Z,32.50
2019-04-03T18:55:09.228Z,32.88
2019-04-03T18:56:05.945Z,33.13
2019-04-03T18:57:02.649Z,33.19
2019-04-03T18:57:59.373Z,33.13
2019-04-03T18:58:56.085Z,32.88
2019-04-03T18:59:52.788Z,32.31
2019-04-03T19:00:49.392Z,31.25
2019-04-03T19:01:46.006Z,30.06
2019-04-03T19:02:42.720Z,29.00
2019-04-03T19:03:39.450Z,28.06
2019-04-03T19:04:37.675Z,27.31
2019-04-03T19:05:34.687Z,26.69
2019-04-03T19:06:31.406Z,26.25
2019-04-03T19:07:28.118Z,25.81
2019-04-03T19:08:24.845Z,25.56
2019-04-03T19:09:21.711Z,25.44
2019-04-03T19:10:18.811Z,25.25
2019-04-03T19:11:15.662Z,25.12
2019-04-03T19:12:12.842Z,25.06
2019-04-03T19:13:10.182Z,25.00
2019-04-03T19:14:06.828Z,24.87
2019-04-03T19:15:03.547Z,24.81
2019-04-03T19:16:02.189Z,24.81
2019-04-03T19:16:58.805Z,24.75
2019-04-03T19:18:00.237Z,24.63
2019-04-03T19:18:54.025Z,24.56
2019-04-03T19:19:50.756Z,24.56
2019-04-03T19:21:54.685Z,24.44
2019-04-03T19:23:01.953Z,24.37
2019-04-03T19:23:51.986Z,24.31
2019-04-03T19:24:48.653Z,24.25
2019-04-03T19:25:45.400Z,24.25
2019-04-03T19:26:42.097Z,24.19
2019-04-03T19:27:38.696Z,24.12
2019-04-03T19:28:35.308Z,24.06
2019-04-03T19:29:31.929Z,24.06
2019-04-03T19:30:28.828Z,24.00
2019-04-03T19:31:25.681Z,23.94
2019-04-03T19:32:22.392Z,23.87
2019-04-03T19:33:19.092Z,23.87
2019-04-03T19:34:19.634Z,23.81
2019-04-03T19:35:14.342Z,23.75
2019-04-03T19:36:11.052Z,23.75
2019-04-03T19:37:07.757Z,23.69
2019-04-03T19:38:04.990Z,23.62
2019-04-03T19:39:02.906Z,23.62
2019-04-03T19:40:01.364Z,23.56
2019-04-03T19:40:58.132Z,23.50
2019-04-03T19:41:54.845Z,23.50
2019-04-03T19:42:51.555Z,23.44
2019-04-03T19:43:48.262Z,23.44
2019-04-03T19:44:44.981Z,23.38
2019-04-03T19:45:41.716Z,23.38
2019-04-03T19:46:38.420Z,23.31
2019-04-03T19:47:35.120Z,23.25
2019-04-03T19:48:31.812Z,23.25
2019-04-03T19:49:28.413Z,23.19
2019-04-03T19:50:25.019Z,23.19
2019-04-03T19:51:21.656Z,23.12
2019-04-03T19:52:18.361Z,23.12
2019-04-03T19:53:15.075Z,23.06
2019-04-03T19:54:11.780Z,23.06
2019-04-03T19:55:08.383Z,23.00
2019-04-03T19:56:04.993Z,23.00
2019-04-03T19:57:01.731Z,22.94
2019-04-03T19:57:58.438Z,22.94
2019-04-03T19:58:55.149Z,22.87
2019-04-03T19:59:51.857Z,22.87
2019-04-03T20:00:48.560Z,22.81
2019-04-03T20:01:45.291Z,22.81
2019-04-03T20:02:43.194Z,22.75
2019-04-03T20:03:40.317Z,22.75
2019-04-03T20:04:37.021Z,22.69
2019-04-03T20:05:33.729Z,22.69
2019-04-03T20:06:30.436Z,22.62
2019-04-03T20:07:27.331Z,22.62
2019-04-03T20:08:24.089Z,22.56
2019-04-03T20:09:20.784Z,22.56
2019-04-03T20:10:17.385Z,22.56
2019-04-03T20:11:14.097Z,22.50
2019-04-03T20:12:10.801Z,22.50
2019-04-03T20:13:08.803Z,22.44
2019-04-03T20:14:06.050Z,22.44
2019-04-03T20:15:02.802Z,22.44
2019-04-03T20:15:59.467Z,22.37
2019-04-03T20:16:58.396Z,22.37
2019-04-03T20:17:55.409Z,22.31
2019-04-03T20:18:52.086Z,22.31
2019-04-03T20:19:48.812Z,22.25
2019-04-03T20:20:45.416Z,22.25
2019-04-03T20:21:42.028Z,22.25
2019-04-03T20:22:42.320Z,22.19
2019-04-03T20:23:37.245Z,22.19
2019-04-03T20:24:33.962Z,22.19
2019-04-03T20:25:30.679Z,22.13
2019-04-03T20:26:27.283Z,22.13
2019-04-03T20:27:23.979Z,22.06
2019-04-03T20:28:23.388Z,22.06
2019-04-03T20:29:19.297Z,22.06
2019-04-03T20:30:16.028Z,22.06
2019-04-03T20:31:12.627Z,22.00
2019-04-03T20:32:09.239Z,22.00
2019-04-03T20:33:05.945Z,21.94
2019-04-03T20:34:02.636Z,21.94
2019-04-03T20:34:59.344Z,21.94
2019-04-03T20:35:56.092Z,21.94
2019-04-03T20:36:54.837Z,21.87
2019-04-03T20:37:51.305Z,21.87
2019-04-03T20:38:48.009Z,21.87
2019-04-03T20:39:44.712Z,21.81
2019-04-03T20:40:41.444Z,21.81
2019-04-03T20:41:38.154Z,21.81
2019-04-03T20:42:34.865Z,21.75
2019-04-03T20:43:31.566Z,21.75
2019-04-03T20:44:28.276Z,21.75
2019-04-03T20:45:25.010Z,21.69
2019-04-03T20:46:22.033Z,21.69
2019-04-03T20:47:20.213Z,21.69
2019-04-03T20:48:16.921Z,21.62
2019-04-03T20:49:13.661Z,21.62
2019-04-03T20:50:10.344Z,21.62
2019-04-03T20:51:08.942Z,21.62
2019-04-03T20:52:05.600Z,21.56
2019-04-03T20:53:02.310Z,21.56
2019-04-03T20:53:59.030Z,21.56
2019-04-03T20:54:55.737Z,21.56
2019-04-03T20:55:52.469Z,21.50
2019-04-03T20:56:57.662Z,21.50
2019-04-03T20:57:55.256Z,21.50
2019-04-03T20:58:55.814Z,21.44
2019-04-03T20:59:57.646Z,21.44
2019-04-03T21:00:43.204Z,21.44
2019-04-03T21:01:39.821Z,21.44
2019-04-03T21:02:36.533Z,21.37
2019-04-03T21:03:33.226Z,21.37
2019-04-03T21:04:29.835Z,21.37
2019-04-03T21:05:26.540Z,21.37
2019-04-03T21:06:23.264Z,21.31
2019-04-03T21:07:20.009Z,21.31
2019-04-03T21:08:16.652Z,21.31
2019-04-03T21:09:13.261Z,21.31
2019-04-03T21:10:09.967Z,21.31
2019-04-03T21:11:06.674Z,21.25
2019-04-03T21:12:05.089Z,21.25
2019-04-03T21:13:01.878Z,21.25
2019-04-03T21:13:58.493Z,21.25
2019-04-03T21:15:07.426Z,21.19
2019-04-03T21:15:53.688Z,21.19
2019-04-03T21:16:50.292Z,21.19
2019-04-03T21:17:49.752Z,21.19
2019-04-03T21:18:45.518Z,21.19
2019-04-03T21:19:42.229Z,21.12
2019-04-03T21:20:38.933Z,21.12
2019-04-03T21:21:35.639Z,21.12
2019-04-03T21:22:32.336Z,21.12
2019-04-03T21:23:29.072Z,21.06
2019-04-03T21:24:25.773Z,21.06
2019-04-03T21:25:22.478Z,21.06
2019-04-03T21:26:19.172Z,21.06
2019-04-03T21:27:15.876Z,21.06
2019-04-03T21:28:12.485Z,21.06
2019-04-03T21:29:09.204Z,21.00
2019-04-03T21:30:05.809Z,21.00
2019-04-03T21:31:02.723Z,21.00
2019-04-03T21:31:59.428Z,21.00
2019-04-03T21:32:56.166Z,20.94
2019-04-03T21:33:52.872Z,20.94
2019-04-03T21:34:49.577Z,20.94
2019-04-03T21:35:46.264Z,20.94
2019-04-03T21:36:42.877Z,20.94
2019-04-03T21:37:40.540Z,20.94
2019-04-03T21:38:37.375Z,20.88
2019-04-03T21:39:34.101Z,20.88
2019-04-03T21:40:30.852Z,20.88
2019-04-03T21:41:27.509Z,20.88
2019-04-03T21:42:24.966Z,20.88
2019-04-03T21:43:22.710Z,20.81
2019-04-03T21:44:19.428Z,20.81
2019-04-03T21:45:16.033Z,20.81
2019-04-03T21:46:12.724Z,20.81
2019-04-03T21:47:11.411Z,20.81
2019-04-03T21:48:07.825Z,20.81
2019-04-03T21:49:04.528Z,20.81
2019-04-03T21:50:03.608Z,20.75
2019-04-03T21:50:59.759Z,20.75
2019-04-03T21:51:56.457Z,20.75
2019-04-03T21:52:53.883Z,20.75
2019-04-03T21:53:51.149Z,20.75
2019-04-03T21:54:47.881Z,20.75
2019-04-03T21:55:44.586Z,20.69
2019-04-03T21:56:41.280Z,20.69
2019-04-03T21:57:38.685Z,20.69
2019-04-03T21:58:35.496Z,20.69
2019-04-03T21:59:32.196Z,20.69
2019-04-03T22:00:35.824Z,20.69
2019-04-03T22:01:32.536Z,20.69
2019-04-03T22:02:29.232Z,20.62
2019-04-03T22:03:25.836Z,20.62
2019-04-03T22:04:22.927Z,20.62
2019-04-03T22:05:20.029Z,20.62
2019-04-03T22:06:16.649Z,20.62
2019-04-03T22:07:13.261Z,20.62
2019-04-03T22:08:09.969Z,20.62
2019-04-03T22:09:06.677Z,20.56
2019-04-03T22:10:03.373Z,20.56
2019-04-03T22:11:00.075Z,20.56
2019-04-03T22:11:56.797Z,20.56
2019-04-03T22:12:53.508Z,20.56
2019-04-03T22:13:50.136Z,20.56
2019-04-03T22:14:46.824Z,20.56
2019-04-03T22:15:45.316Z,20.50
2019-04-03T22:16:41.940Z,20.50
2019-04-03T22:17:38.537Z,20.50
